sensor_id;sensor_type;location;lat;lon;timestamp;temperature;humidity
37998;DHT22;24079;51.824;4.682;2023-04-30T00:01:08;9.60;99.90
37998;DHT22;24079;51.824;4.682;2023-04-30T00:03:33;9.60;99.90
37998;DHT22;24079;51.824;4.682;2023-04-30T00:05:59;9.60;99.90
37998;DHT22;24079;51.824;4.682;2023-04-30T00:08:24;9.60;99.90
37998;DHT22;24079;51.824;4.682;2023-04-30T00:10:51;9.60;99.90
37998;DHT22;24079;51.824;4.682;2023-04-30T00:13:16;9.60;99.90
37998;DHT22;24079;51.824;4.682;2023-04-30T00:15:43;9.60;99.90
37998;DHT22;24079;51.824;4.682;2023-04-30T00:18:08;9.50;99.90
37998;DHT22;24079;51.824;4.682;2023-04-30T00:20:34;9.50;99.90
37998;DHT22;24079;51.824;4.682;2023-04-30T00:23:00;9.50;99.90
37998;DHT22;24079;51.824;4.682;2023-04-30T00:25:25;9.60;99.90
37998;DHT22;24079;51.824;4.682;2023-04-30T00:27:51;9.60;99.90
37998;DHT22;24079;51.824;4.682;2023-04-30T00:30:17;9.50;99.90
37998;DHT22;24079;51.824;4.682;2023-04-30T00:32:42;9.50;99.90
37998;DHT22;24079;51.824;4.682;2023-04-30T00:35:10;9.50;99.90
37998;DHT22;24079;51.824;4.682;2023-04-30T00:37:35;9.50;99.90
37998;DHT22;24079;51.824;4.682;2023-04-30T00:40:01;9.50;99.90
37998;DHT22;24079;51.824;4.682;2023-04-30T00:42:27;9.50;99.90
37998;DHT22;24079;51.824;4.682;2023-04-30T00:44:52;9.50;99.90
37998;DHT22;24079;51.824;4.682;2023-04-30T00:47:18;9.50;99.90
37998;DHT22;24079;51.824;4.682;2023-04-30T00:49:44;9.40;99.90
37998;DHT22;24079;51.824;4.682;2023-04-30T00:52:11;9.40;99.90
37998;DHT22;24079;51.824;4.682;2023-04-30T00:54:37;9.40;99.90
37998;DHT22;24079;51.824;4.682;2023-04-30T00:57:04;9.40;99.90
37998;DHT22;24079;51.824;4.682;2023-04-30T00:59:32;9.40;99.90
37998;DHT22;24079;51.824;4.682;2023-04-30T01:01:58;9.40;99.90
37998;DHT22;24079;51.824;4.682;2023-04-30T01:04:23;9.30;99.90
37998;DHT22;24079;51.824;4.682;2023-04-30T01:06:49;9.30;99.90
37998;DHT22;24079;51.824;4.682;2023-04-30T01:09:15;9.30;99.90
37998;DHT22;24079;51.824;4.682;2023-04-30T01:16:50;9.30;99.90
37998;DHT22;24079;51.824;4.682;2023-04-30T01:19:19;9.30;99.90
37998;DHT22;24079;51.824;4.682;2023-04-30T01:21:52;9.30;99.90
37998;DHT22;24079;51.824;4.682;2023-04-30T01:29:38;9.20;99.90
37998;DHT22;24079;51.824;4.682;2023-04-30T01:32:06;9.20;99.90
37998;DHT22;24079;51.824;4.682;2023-04-30T01:34:32;9.20;99.90
37998;DHT22;24079;51.824;4.682;2023-04-30T01:37:21;9.20;99.90
37998;DHT22;24079;51.824;4.682;2023-04-30T01:42:46;9.20;99.90
37998;DHT22;24079;51.824;4.682;2023-04-30T01:45:40;9.20;99.90
37998;DHT22;24079;51.824;4.682;2023-04-30T01:51:27;9.20;99.90
37998;DHT22;24079;51.824;4.682;2023-04-30T01:54:05;9.20;99.90
37998;DHT22;24079;51.824;4.682;2023-04-30T01:56:43;9.20;99.90
37998;DHT22;24079;51.824;4.682;2023-04-30T01:59:12;9.20;99.90
37998;DHT22;24079;51.824;4.682;2023-04-30T02:01:39;9.20;99.90
37998;DHT22;24079;51.824;4.682;2023-04-30T02:04:05;9.10;99.90
37998;DHT22;24079;51.824;4.682;2023-04-30T02:06:32;9.10;99.90
37998;DHT22;24079;51.824;4.682;2023-04-30T02:08:58;9.00;99.90
37998;DHT22;24079;51.824;4.682;2023-04-30T02:11:30;8.90;99.90
37998;DHT22;24079;51.824;4.682;2023-04-30T02:13:56;8.90;99.90
37998;DHT22;24079;51.824;4.682;2023-04-30T02:16:23;8.90;99.90
37998;DHT22;24079;51.824;4.682;2023-04-30T02:18:50;8.90;99.90
37998;DHT22;24079;51.824;4.682;2023-04-30T02:21:15;8.80;99.90
37998;DHT22;24079;51.824;4.682;2023-04-30T02:23:41;8.70;99.90
37998;DHT22;24079;51.824;4.682;2023-04-30T02:26:07;8.70;99.90
37998;DHT22;24079;51.824;4.682;2023-04-30T02:28:32;8.70;99.90
37998;DHT22;24079;51.824;4.682;2023-04-30T02:30:58;8.70;99.90
37998;DHT22;24079;51.824;4.682;2023-04-30T02:33:24;8.70;99.90
37998;DHT22;24079;51.824;4.682;2023-04-30T02:35:50;8.70;99.90
37998;DHT22;24079;51.824;4.682;2023-04-30T02:38:15;8.60;99.90
37998;DHT22;24079;51.824;4.682;2023-04-30T02:40:41;8.60;99.90
37998;DHT22;24079;51.824;4.682;2023-04-30T02:43:07;8.60;99.90
37998;DHT22;24079;51.824;4.682;2023-04-30T02:45:33;8.60;99.90
37998;DHT22;24079;51.824;4.682;2023-04-30T02:47:58;8.60;99.90
37998;DHT22;24079;51.824;4.682;2023-04-30T02:50:24;8.60;99.90
37998;DHT22;24079;51.824;4.682;2023-04-30T02:52:50;8.60;99.90
37998;DHT22;24079;51.824;4.682;2023-04-30T02:55:16;8.60;99.90
37998;DHT22;24079;51.824;4.682;2023-04-30T02:57:42;8.60;99.90
37998;DHT22;24079;51.824;4.682;2023-04-30T03:00:08;8.60;99.90
37998;DHT22;24079;51.824;4.682;2023-04-30T03:02:34;8.60;99.90
37998;DHT22;24079;51.824;4.682;2023-04-30T03:05:00;8.60;99.90
37998;DHT22;24079;51.824;4.682;2023-04-30T03:07:26;8.60;99.90
37998;DHT22;24079;51.824;4.682;2023-04-30T03:09:51;8.60;99.90
37998;DHT22;24079;51.824;4.682;2023-04-30T03:12:17;8.60;99.90
37998;DHT22;24079;51.824;4.682;2023-04-30T03:14:42;8.50;99.90
37998;DHT22;24079;51.824;4.682;2023-04-30T03:17:08;8.50;99.90
37998;DHT22;24079;51.824;4.682;2023-04-30T03:19:34;8.50;99.90
37998;DHT22;24079;51.824;4.682;2023-04-30T03:21:59;8.50;99.90
37998;DHT22;24079;51.824;4.682;2023-04-30T03:24:25;8.60;99.90
37998;DHT22;24079;51.824;4.682;2023-04-30T03:26:50;8.50;99.90
37998;DHT22;24079;51.824;4.682;2023-04-30T03:29:16;8.50;99.90
37998;DHT22;24079;51.824;4.682;2023-04-30T03:31:42;8.50;99.90
37998;DHT22;24079;51.824;4.682;2023-04-30T03:34:08;8.50;99.90
37998;DHT22;24079;51.824;4.682;2023-04-30T03:36:33;8.50;99.90
37998;DHT22;24079;51.824;4.682;2023-04-30T03:38:59;8.50;99.90
37998;DHT22;24079;51.824;4.682;2023-04-30T03:41:25;8.40;99.90
37998;DHT22;24079;51.824;4.682;2023-04-30T03:43:51;8.50;99.90
37998;DHT22;24079;51.824;4.682;2023-04-30T03:46:17;8.40;99.90
37998;DHT22;24079;51.824;4.682;2023-04-30T03:48:42;8.40;99.90
37998;DHT22;24079;51.824;4.682;2023-04-30T03:51:09;8.50;99.90
37998;DHT22;24079;51.824;4.682;2023-04-30T03:53:35;8.40;99.90
37998;DHT22;24079;51.824;4.682;2023-04-30T03:56:01;8.40;99.90
37998;DHT22;24079;51.824;4.682;2023-04-30T03:58:29;8.40;99.90
37998;DHT22;24079;51.824;4.682;2023-04-30T04:00:54;8.40;99.90
37998;DHT22;24079;51.824;4.682;2023-04-30T04:03:20;8.40;99.90
37998;DHT22;24079;51.824;4.682;2023-04-30T04:05:46;8.40;99.90
37998;DHT22;24079;51.824;4.682;2023-04-30T04:08:12;8.40;99.90
37998;DHT22;24079;51.824;4.682;2023-04-30T04:10:38;8.30;99.90
37998;DHT22;24079;51.824;4.682;2023-04-30T04:13:05;8.30;99.90
37998;DHT22;24079;51.824;4.682;2023-04-30T04:15:31;8.30;99.90
37998;DHT22;24079;51.824;4.682;2023-04-30T04:17:57;8.40;99.90
37998;DHT22;24079;51.824;4.682;2023-04-30T04:20:23;8.40;99.90
37998;DHT22;24079;51.824;4.682;2023-04-30T04:22:49;8.40;99.90
37998;DHT22;24079;51.824;4.682;2023-04-30T04:25:15;8.40;99.90
37998;DHT22;24079;51.824;4.682;2023-04-30T04:27:44;8.40;99.90
37998;DHT22;24079;51.824;4.682;2023-04-30T04:30:11;8.50;99.90
37998;DHT22;24079;51.824;4.682;2023-04-30T04:32:38;8.50;99.90
37998;DHT22;24079;51.824;4.682;2023-04-30T04:35:11;8.50;99.90
37998;DHT22;24079;51.824;4.682;2023-04-30T04:37:37;8.50;99.90
37998;DHT22;24079;51.824;4.682;2023-04-30T04:40:03;8.50;99.90
37998;DHT22;24079;51.824;4.682;2023-04-30T04:42:29;8.50;99.90
37998;DHT22;24079;51.824;4.682;2023-04-30T04:44:55;8.50;99.90
37998;DHT22;24079;51.824;4.682;2023-04-30T04:47:21;8.60;99.90
37998;DHT22;24079;51.824;4.682;2023-04-30T04:49:47;8.60;99.90
37998;DHT22;24079;51.824;4.682;2023-04-30T04:52:12;8.60;99.90
37998;DHT22;24079;51.824;4.682;2023-04-30T04:54:38;8.60;99.90
37998;DHT22;24079;51.824;4.682;2023-04-30T04:57:03;8.70;99.90
37998;DHT22;24079;51.824;4.682;2023-04-30T04:59:29;8.70;99.90
37998;DHT22;24079;51.824;4.682;2023-04-30T05:01:55;8.80;99.90
37998;DHT22;24079;51.824;4.682;2023-04-30T05:04:21;8.80;99.90
37998;DHT22;24079;51.824;4.682;2023-04-30T05:06:47;8.80;99.90
37998;DHT22;24079;51.824;4.682;2023-04-30T05:09:13;8.90;99.90
37998;DHT22;24079;51.824;4.682;2023-04-30T05:11:39;8.90;99.90
37998;DHT22;24079;51.824;4.682;2023-04-30T05:14:06;9.00;99.90
37998;DHT22;24079;51.824;4.682;2023-04-30T05:16:32;9.00;99.90
37998;DHT22;24079;51.824;4.682;2023-04-30T05:18:58;9.10;99.90
37998;DHT22;24079;51.824;4.682;2023-04-30T05:21:24;9.10;99.90
37998;DHT22;24079;51.824;4.682;2023-04-30T05:23:54;9.20;99.90
37998;DHT22;24079;51.824;4.682;2023-04-30T05:26:20;9.20;99.90
37998;DHT22;24079;51.824;4.682;2023-04-30T05:28:49;9.30;99.90
37998;DHT22;24079;51.824;4.682;2023-04-30T05:31:17;9.30;99.90
37998;DHT22;24079;51.824;4.682;2023-04-30T05:33:43;9.40;99.90
37998;DHT22;24079;51.824;4.682;2023-04-30T05:36:09;9.50;99.90
37998;DHT22;24079;51.824;4.682;2023-04-30T05:38:35;10.00;99.90
37998;DHT22;24079;51.824;4.682;2023-04-30T05:41:01;11.30;99.90
37998;DHT22;24079;51.824;4.682;2023-04-30T05:43:28;12.40;99.90
37998;DHT22;24079;51.824;4.682;2023-04-30T05:45:54;13.20;99.90
37998;DHT22;24079;51.824;4.682;2023-04-30T05:48:20;14.10;99.90
37998;DHT22;24079;51.824;4.682;2023-04-30T05:50:46;14.70;99.90
37998;DHT22;24079;51.824;4.682;2023-04-30T05:53:12;15.30;99.90
37998;DHT22;24079;51.824;4.682;2023-04-30T05:55:38;15.50;99.90
37998;DHT22;24079;51.824;4.682;2023-04-30T05:58:05;15.80;99.90
37998;DHT22;24079;51.824;4.682;2023-04-30T06:00:31;16.20;99.90
37998;DHT22;24079;51.824;4.682;2023-04-30T06:02:57;16.20;99.90
37998;DHT22;24079;51.824;4.682;2023-04-30T06:05:23;15.90;99.90
37998;DHT22;24079;51.824;4.682;2023-04-30T06:07:49;16.50;99.90
37998;DHT22;24079;51.824;4.682;2023-04-30T06:10:15;16.70;99.90
37998;DHT22;24079;51.824;4.682;2023-04-30T06:12:41;17.20;99.90
37998;DHT22;24079;51.824;4.682;2023-04-30T06:15:07;17.30;99.90
37998;DHT22;24079;51.824;4.682;2023-04-30T06:17:33;16.90;99.90
37998;DHT22;24079;51.824;4.682;2023-04-30T06:19:59;16.60;99.90
37998;DHT22;24079;51.824;4.682;2023-04-30T06:22:31;16.60;99.90
37998;DHT22;24079;51.824;4.682;2023-04-30T06:24:57;17.40;99.90
37998;DHT22;24079;51.824;4.682;2023-04-30T06:27:24;17.80;99.90
37998;DHT22;24079;51.824;4.682;2023-04-30T06:29:53;18.40;99.90
37998;DHT22;24079;51.824;4.682;2023-04-30T06:32:19;18.70;99.90
37998;DHT22;24079;51.824;4.682;2023-04-30T06:34:45;18.60;99.90
37998;DHT22;24079;51.824;4.682;2023-04-30T06:37:11;18.50;99.90
37998;DHT22;24079;51.824;4.682;2023-04-30T06:39:37;18.70;99.90
37998;DHT22;24079;51.824;4.682;2023-04-30T06:42:03;18.30;99.90
37998;DHT22;24079;51.824;4.682;2023-04-30T06:44:29;18.20;99.90
37998;DHT22;24079;51.824;4.682;2023-04-30T06:46:55;18.20;99.90
37998;DHT22;24079;51.824;4.682;2023-04-30T06:49:21;18.50;99.90
37998;DHT22;24079;51.824;4.682;2023-04-30T06:51:47;18.60;99.90
37998;DHT22;24079;51.824;4.682;2023-04-30T06:54:13;18.40;99.90
37998;DHT22;24079;51.824;4.682;2023-04-30T06:56:39;18.40;99.90
37998;DHT22;24079;51.824;4.682;2023-04-30T06:59:06;19.00;99.90
37998;DHT22;24079;51.824;4.682;2023-04-30T07:01:32;19.30;99.90
37998;DHT22;24079;51.824;4.682;2023-04-30T07:03:57;19.30;99.90
37998;DHT22;24079;51.824;4.682;2023-04-30T07:06:23;18.00;99.90
37998;DHT22;24079;51.824;4.682;2023-04-30T07:08:48;18.00;99.90
37998;DHT22;24079;51.824;4.682;2023-04-30T07:11:14;18.40;99.90
37998;DHT22;24079;51.824;4.682;2023-04-30T07:13:40;18.70;99.90
37998;DHT22;24079;51.824;4.682;2023-04-30T07:16:06;18.70;99.90
37998;DHT22;24079;51.824;4.682;2023-04-30T07:18:35;18.90;99.90
37998;DHT22;24079;51.824;4.682;2023-04-30T07:21:02;19.10;99.90
37998;DHT22;24079;51.824;4.682;2023-04-30T07:23:28;19.90;99.90
37998;DHT22;24079;51.824;4.682;2023-04-30T07:25:54;20.50;99.90
37998;DHT22;24079;51.824;4.682;2023-04-30T07:28:20;20.70;99.90
37998;DHT22;24079;51.824;4.682;2023-04-30T07:30:46;20.30;99.90
37998;DHT22;24079;51.824;4.682;2023-04-30T07:33:13;20.40;99.90
37998;DHT22;24079;51.824;4.682;2023-04-30T07:35:39;20.50;99.90
37998;DHT22;24079;51.824;4.682;2023-04-30T07:38:05;20.70;99.90
37998;DHT22;24079;51.824;4.682;2023-04-30T07:40:31;20.80;99.90
37998;DHT22;24079;51.824;4.682;2023-04-30T07:42:57;21.30;99.90
37998;DHT22;24079;51.824;4.682;2023-04-30T07:45:23;21.80;99.90
37998;DHT22;24079;51.824;4.682;2023-04-30T07:47:49;22.30;99.90
37998;DHT22;24079;51.824;4.682;2023-04-30T07:50:15;22.70;99.90
37998;DHT22;24079;51.824;4.682;2023-04-30T07:52:41;22.90;99.90
37998;DHT22;24079;51.824;4.682;2023-04-30T07:55:07;23.10;99.90
37998;DHT22;24079;51.824;4.682;2023-04-30T07:57:33;23.50;99.90
37998;DHT22;24079;51.824;4.682;2023-04-30T07:59:58;23.40;99.90
37998;DHT22;24079;51.824;4.682;2023-04-30T08:02:24;23.50;99.90
37998;DHT22;24079;51.824;4.682;2023-04-30T08:04:50;23.30;99.90
37998;DHT22;24079;51.824;4.682;2023-04-30T08:07:15;23.10;99.90
37998;DHT22;24079;51.824;4.682;2023-04-30T08:09:41;23.30;99.90
37998;DHT22;24079;51.824;4.682;2023-04-30T08:12:08;23.50;99.90
37998;DHT22;24079;51.824;4.682;2023-04-30T08:14:34;23.50;99.90
37998;DHT22;24079;51.824;4.682;2023-04-30T08:16:59;23.30;99.90
37998;DHT22;24079;51.824;4.682;2023-04-30T08:19:27;23.60;99.90
37998;DHT22;24079;51.824;4.682;2023-04-30T08:21:52;23.40;99.90
37998;DHT22;24079;51.824;4.682;2023-04-30T08:24:18;23.10;99.90
37998;DHT22;24079;51.824;4.682;2023-04-30T08:26:43;23.00;99.90
37998;DHT22;24079;51.824;4.682;2023-04-30T08:29:09;23.20;99.90
37998;DHT22;24079;51.824;4.682;2023-04-30T08:31:35;23.00;99.90
37998;DHT22;24079;51.824;4.682;2023-04-30T08:34:01;22.30;99.90
37998;DHT22;24079;51.824;4.682;2023-04-30T08:36:26;22.10;99.90
37998;DHT22;24079;51.824;4.682;2023-04-30T08:38:52;22.40;99.90
37998;DHT22;24079;51.824;4.682;2023-04-30T08:41:20;22.30;99.90
37998;DHT22;24079;51.824;4.682;2023-04-30T08:43:47;22.10;99.90
37998;DHT22;24079;51.824;4.682;2023-04-30T08:46:17;22.00;99.90
37998;DHT22;24079;51.824;4.682;2023-04-30T08:48:44;21.90;99.90
37998;DHT22;24079;51.824;4.682;2023-04-30T08:51:10;21.70;99.90
37998;DHT22;24079;51.824;4.682;2023-04-30T08:53:36;21.60;99.90
37998;DHT22;24079;51.824;4.682;2023-04-30T08:56:03;21.50;99.90
37998;DHT22;24079;51.824;4.682;2023-04-30T08:58:29;21.20;99.90
37998;DHT22;24079;51.824;4.682;2023-04-30T09:00:57;21.00;99.90
37998;DHT22;24079;51.824;4.682;2023-04-30T09:03:24;20.90;99.90
37998;DHT22;24079;51.824;4.682;2023-04-30T09:05:50;20.90;99.90
37998;DHT22;24079;51.824;4.682;2023-04-30T09:08:38;21.10;99.90
37998;DHT22;24079;51.824;4.682;2023-04-30T09:11:01;20.80;99.90
37998;DHT22;24079;51.824;4.682;2023-04-30T09:13:39;20.80;99.90
37998;DHT22;24079;51.824;4.682;2023-04-30T09:16:05;20.60;99.90
37998;DHT22;24079;51.824;4.682;2023-04-30T09:18:38;20.80;99.90
37998;DHT22;24079;51.824;4.682;2023-04-30T09:21:03;20.90;99.90
37998;DHT22;24079;51.824;4.682;2023-04-30T09:23:32;21.10;99.90
37998;DHT22;24079;51.824;4.682;2023-04-30T09:25:58;21.20;99.90
37998;DHT22;24079;51.824;4.682;2023-04-30T09:28:25;20.90;99.90
37998;DHT22;24079;51.824;4.682;2023-04-30T09:30:55;21.10;99.90
37998;DHT22;24079;51.824;4.682;2023-04-30T09:33:22;21.00;99.90
37998;DHT22;24079;51.824;4.682;2023-04-30T09:35:48;20.70;99.90
37998;DHT22;24079;51.824;4.682;2023-04-30T09:38:30;20.40;99.90
37998;DHT22;24079;51.824;4.682;2023-04-30T09:41:00;20.40;99.90
37998;DHT22;24079;51.824;4.682;2023-04-30T09:43:27;20.40;99.90
37998;DHT22;24079;51.824;4.682;2023-04-30T09:45:53;20.40;99.90
37998;DHT22;24079;51.824;4.682;2023-04-30T09:48:23;20.50;99.90
37998;DHT22;24079;51.824;4.682;2023-04-30T09:50:50;20.40;99.90
37998;DHT22;24079;51.824;4.682;2023-04-30T09:53:16;20.30;99.90
37998;DHT22;24079;51.824;4.682;2023-04-30T09:55:49;20.50;99.90
37998;DHT22;24079;51.824;4.682;2023-04-30T09:58:16;20.40;99.90
37998;DHT22;24079;51.824;4.682;2023-04-30T10:00:44;20.20;99.90
37998;DHT22;24079;51.824;4.682;2023-04-30T10:03:12;20.30;99.90
37998;DHT22;24079;51.824;4.682;2023-04-30T10:05:43;20.40;99.90
37998;DHT22;24079;51.824;4.682;2023-04-30T10:08:45;20.10;99.90
37998;DHT22;24079;51.824;4.682;2023-04-30T10:11:17;19.90;99.90
37998;DHT22;24079;51.824;4.682;2023-04-30T10:13:50;20.00;99.90
37998;DHT22;24079;51.824;4.682;2023-04-30T10:19:05;20.40;99.90
37998;DHT22;24079;51.824;4.682;2023-04-30T10:21:31;20.30;99.90
37998;DHT22;24079;51.824;4.682;2023-04-30T10:23:58;20.40;99.90
37998;DHT22;24079;51.824;4.682;2023-04-30T10:26:24;20.50;99.90
37998;DHT22;24079;51.824;4.682;2023-04-30T10:28:50;20.20;99.90
37998;DHT22;24079;51.824;4.682;2023-04-30T10:31:19;20.30;99.90
37998;DHT22;24079;51.824;4.682;2023-04-30T10:33:57;20.40;99.90
37998;DHT22;24079;51.824;4.682;2023-04-30T10:39:11;20.50;99.90
37998;DHT22;24079;51.824;4.682;2023-04-30T10:41:38;20.40;99.90
37998;DHT22;24079;51.824;4.682;2023-04-30T10:44:04;20.50;99.90
37998;DHT22;24079;51.824;4.682;2023-04-30T10:46:34;20.50;99.90
37998;DHT22;24079;51.824;4.682;2023-04-30T10:49:00;20.30;99.90
37998;DHT22;24079;51.824;4.682;2023-04-30T10:51:44;19.90;99.90
37998;DHT22;24079;51.824;4.682;2023-04-30T10:54:14;19.90;99.90
37998;DHT22;24079;51.824;4.682;2023-04-30T10:56:44;20.20;99.90
37998;DHT22;24079;51.824;4.682;2023-04-30T10:59:10;20.40;99.90
37998;DHT22;24079;51.824;4.682;2023-04-30T11:01:59;20.50;99.90
37998;DHT22;24079;51.824;4.682;2023-04-30T11:04:26;20.40;99.90
37998;DHT22;24079;51.824;4.682;2023-04-30T11:09:19;20.60;99.90
37998;DHT22;24079;51.824;4.682;2023-04-30T11:11:45;20.40;99.90
37998;DHT22;24079;51.824;4.682;2023-04-30T11:14:13;20.30;99.90
37998;DHT22;24079;51.824;4.682;2023-04-30T11:16:48;20.40;99.90
37998;DHT22;24079;51.824;4.682;2023-04-30T11:19:14;20.60;99.90
37998;DHT22;24079;51.824;4.682;2023-04-30T11:21:41;20.60;99.90
37998;DHT22;24079;51.824;4.682;2023-04-30T11:24:06;20.40;99.90
37998;DHT22;24079;51.824;4.682;2023-04-30T11:27:04;20.50;99.90
37998;DHT22;24079;51.824;4.682;2023-04-30T11:29:30;20.70;99.90
37998;DHT22;24079;51.824;4.682;2023-04-30T11:31:59;20.50;99.90
37998;DHT22;24079;51.824;4.682;2023-04-30T11:34:25;20.70;99.90
37998;DHT22;24079;51.824;4.682;2023-04-30T11:36:54;20.70;99.90
37998;DHT22;24079;51.824;4.682;2023-04-30T11:39:24;20.90;99.90
37998;DHT22;24079;51.824;4.682;2023-04-30T11:41:51;20.70;99.90
37998;DHT22;24079;51.824;4.682;2023-04-30T11:44:25;20.50;99.90
37998;DHT22;24079;51.824;4.682;2023-04-30T11:46:51;20.20;99.90
37998;DHT22;24079;51.824;4.682;2023-04-30T11:49:19;20.20;99.90
37998;DHT22;24079;51.824;4.682;2023-04-30T11:51:49;20.40;99.90
37998;DHT22;24079;51.824;4.682;2023-04-30T11:54:15;20.70;99.90
37998;DHT22;24079;51.824;4.682;2023-04-30T11:56:45;20.70;99.90
37998;DHT22;24079;51.824;4.682;2023-04-30T11:59:15;20.60;99.90
37998;DHT22;24079;51.824;4.682;2023-04-30T12:01:42;20.60;99.90
37998;DHT22;24079;51.824;4.682;2023-04-30T12:04:08;20.60;99.90
37998;DHT22;24079;51.824;4.682;2023-04-30T12:06:34;20.50;99.90
37998;DHT22;24079;51.824;4.682;2023-04-30T12:09:01;20.80;99.90
37998;DHT22;24079;51.824;4.682;2023-04-30T12:11:37;20.90;99.90
37998;DHT22;24079;51.824;4.682;2023-04-30T12:14:08;20.90;99.90
37998;DHT22;24079;51.824;4.682;2023-04-30T12:16:43;20.80;99.90
37998;DHT22;24079;51.824;4.682;2023-04-30T12:19:19;20.60;99.90
37998;DHT22;24079;51.824;4.682;2023-04-30T12:21:47;20.60;99.90
37998;DHT22;24079;51.824;4.682;2023-04-30T12:24:15;20.50;99.90
37998;DHT22;24079;51.824;4.682;2023-04-30T12:26:42;20.20;99.90
37998;DHT22;24079;51.824;4.682;2023-04-30T12:29:15;20.20;99.90
37998;DHT22;24079;51.824;4.682;2023-04-30T12:31:42;20.30;99.90
37998;DHT22;24079;51.824;4.682;2023-04-30T12:34:11;20.00;99.90
37998;DHT22;24079;51.824;4.682;2023-04-30T12:36:38;20.10;99.90
37998;DHT22;24079;51.824;4.682;2023-04-30T12:39:15;20.40;99.90
37998;DHT22;24079;51.824;4.682;2023-04-30T12:41:46;20.30;99.90
37998;DHT22;24079;51.824;4.682;2023-04-30T12:44:14;20.10;99.90
37998;DHT22;24079;51.824;4.682;2023-04-30T12:54:36;19.70;99.90
37998;DHT22;24079;51.824;4.682;2023-04-30T12:59:33;20.50;99.90
37998;DHT22;24079;51.824;4.682;2023-04-30T13:05:17;20.60;99.90
37998;DHT22;24079;51.824;4.682;2023-04-30T13:07:43;20.30;99.90
37998;DHT22;24079;51.824;4.682;2023-04-30T13:10:14;20.40;99.90
37998;DHT22;24079;51.824;4.682;2023-04-30T13:12:40;20.30;99.90
37998;DHT22;24079;51.824;4.682;2023-04-30T13:15:07;20.30;99.90
37998;DHT22;24079;51.824;4.682;2023-04-30T13:17:32;20.40;99.90
37998;DHT22;24079;51.824;4.682;2023-04-30T13:19:58;20.40;99.90
37998;DHT22;24079;51.824;4.682;2023-04-30T13:22:24;20.60;99.90
37998;DHT22;24079;51.824;4.682;2023-04-30T13:24:53;20.60;99.90
37998;DHT22;24079;51.824;4.682;2023-04-30T13:27:23;20.50;99.90
37998;DHT22;24079;51.824;4.682;2023-04-30T13:29:49;20.00;99.90
37998;DHT22;24079;51.824;4.682;2023-04-30T13:40:21;19.80;99.90
37998;DHT22;24079;51.824;4.682;2023-04-30T13:46:32;20.00;99.90
37998;DHT22;24079;51.824;4.682;2023-04-30T13:48:58;20.00;99.90
37998;DHT22;24079;51.824;4.682;2023-04-30T13:51:24;20.00;99.90
37998;DHT22;24079;51.824;4.682;2023-04-30T13:53:49;20.10;99.90
37998;DHT22;24079;51.824;4.682;2023-04-30T13:56:15;20.10;99.90
37998;DHT22;24079;51.824;4.682;2023-04-30T13:58:41;20.10;99.90
37998;DHT22;24079;51.824;4.682;2023-04-30T14:01:06;20.00;99.90
37998;DHT22;24079;51.824;4.682;2023-04-30T14:03:33;20.10;99.90
37998;DHT22;24079;51.824;4.682;2023-04-30T14:05:58;20.20;99.90
37998;DHT22;24079;51.824;4.682;2023-04-30T14:08:24;20.20;99.90
37998;DHT22;24079;51.824;4.682;2023-04-30T14:10:50;19.90;99.90
37998;DHT22;24079;51.824;4.682;2023-04-30T14:13:15;19.80;99.90
37998;DHT22;24079;51.824;4.682;2023-04-30T14:15:42;19.70;99.90
37998;DHT22;24079;51.824;4.682;2023-04-30T14:18:07;19.80;99.90
37998;DHT22;24079;51.824;4.682;2023-04-30T14:20:34;19.70;99.90
37998;DHT22;24079;51.824;4.682;2023-04-30T14:22:59;19.60;99.90
37998;DHT22;24079;51.824;4.682;2023-04-30T14:25:25;19.70;99.90
37998;DHT22;24079;51.824;4.682;2023-04-30T14:27:51;19.80;99.90
37998;DHT22;24079;51.824;4.682;2023-04-30T14:30:17;19.80;99.90
37998;DHT22;24079;51.824;4.682;2023-04-30T14:32:43;19.80;99.90
37998;DHT22;24079;51.824;4.682;2023-04-30T14:35:09;19.70;99.90
37998;DHT22;24079;51.824;4.682;2023-04-30T14:37:35;19.60;99.90
37998;DHT22;24079;51.824;4.682;2023-04-30T14:40:01;19.70;99.90
37998;DHT22;24079;51.824;4.682;2023-04-30T14:42:27;19.70;99.90
37998;DHT22;24079;51.824;4.682;2023-04-30T14:44:53;19.60;99.90
37998;DHT22;24079;51.824;4.682;2023-04-30T14:47:19;19.60;99.90
37998;DHT22;24079;51.824;4.682;2023-04-30T14:49:46;19.60;99.90
37998;DHT22;24079;51.824;4.682;2023-04-30T14:52:12;19.60;99.90
37998;DHT22;24079;51.824;4.682;2023-04-30T14:54:38;19.50;99.90
37998;DHT22;24079;51.824;4.682;2023-04-30T14:57:04;19.60;99.90
37998;DHT22;24079;51.824;4.682;2023-04-30T14:59:30;19.70;99.90
37998;DHT22;24079;51.824;4.682;2023-04-30T15:01:56;19.50;99.90
37998;DHT22;24079;51.824;4.682;2023-04-30T15:04:22;19.40;99.90
37998;DHT22;24079;51.824;4.682;2023-04-30T15:06:47;19.30;99.90
37998;DHT22;24079;51.824;4.682;2023-04-30T15:09:13;19.30;99.90
37998;DHT22;24079;51.824;4.682;2023-04-30T15:11:38;19.30;99.90
37998;DHT22;24079;51.824;4.682;2023-04-30T15:14:04;19.20;99.90
37998;DHT22;24079;51.824;4.682;2023-04-30T15:16:30;19.20;99.90
37998;DHT22;24079;51.824;4.682;2023-04-30T15:18:55;19.30;99.90
37998;DHT22;24079;51.824;4.682;2023-04-30T15:21:21;19.30;99.90
37998;DHT22;24079;51.824;4.682;2023-04-30T15:23:47;19.30;99.90
37998;DHT22;24079;51.824;4.682;2023-04-30T15:26:14;19.30;99.90
37998;DHT22;24079;51.824;4.682;2023-04-30T15:28:42;19.30;99.90
37998;DHT22;24079;51.824;4.682;2023-04-30T15:31:08;19.20;99.90
37998;DHT22;24079;51.824;4.682;2023-04-30T15:33:35;19.20;99.90
37998;DHT22;24079;51.824;4.682;2023-04-30T15:36:06;19.20;99.90
37998;DHT22;24079;51.824;4.682;2023-04-30T15:38:33;19.20;99.90
37998;DHT22;24079;51.824;4.682;2023-04-30T15:40:58;19.10;99.90
37998;DHT22;24079;51.824;4.682;2023-04-30T15:43:24;19.10;99.90
37998;DHT22;24079;51.824;4.682;2023-04-30T15:45:50;19.00;99.90
37998;DHT22;24079;51.824;4.682;2023-04-30T15:48:16;18.90;99.90
37998;DHT22;24079;51.824;4.682;2023-04-30T15:50:42;18.90;99.90
37998;DHT22;24079;51.824;4.682;2023-04-30T15:53:08;18.90;99.90
37998;DHT22;24079;51.824;4.682;2023-04-30T15:55:34;18.90;99.90
37998;DHT22;24079;51.824;4.682;2023-04-30T15:58:00;19.00;99.90
37998;DHT22;24079;51.824;4.682;2023-04-30T16:00:26;19.00;99.90
37998;DHT22;24079;51.824;4.682;2023-04-30T16:02:52;19.00;99.90
37998;DHT22;24079;51.824;4.682;2023-04-30T16:05:18;19.00;99.90
37998;DHT22;24079;51.824;4.682;2023-04-30T16:07:43;19.00;99.90
37998;DHT22;24079;51.824;4.682;2023-04-30T16:10:10;19.10;99.90
37998;DHT22;24079;51.824;4.682;2023-04-30T16:12:36;19.10;99.90
37998;DHT22;24079;51.824;4.682;2023-04-30T16:15:02;19.10;99.90
37998;DHT22;24079;51.824;4.682;2023-04-30T16:17:30;19.10;99.90
37998;DHT22;24079;51.824;4.682;2023-04-30T16:19:57;19.10;99.90
37998;DHT22;24079;51.824;4.682;2023-04-30T16:22:24;19.10;99.90
37998;DHT22;24079;51.824;4.682;2023-04-30T16:24:52;19.10;99.90